LEGT weather

Getafe Air Base
Getafe, Madrid, Spain

Public forecast

Using degrees Celsius for public forecast. Weather courtesy of forecast.io.

Current aviation weather report (METAR) for Getafe Air Base

Retrieved 2019/10/19 15:00 UTC (58 minutes ago):

LEGT 191500Z 18015KT 9999 FEW027 BKN037 BKN044 17/11 Q1008

Aviation forecast (TAF) for Getafe Air Base

Forecast is more than 12 hours old.

Retrieved 2018/03/28 12:33 UTC (2 years ago):

TAF LEGT 281100Z 2812/2824 24010KT CAVOK PROB40 TEMPO 2814/2818 27015G25KT TEMPO 2820/2824 28008KT